sensor_id;sensor_type;location;lat;lon;timestamp;temperature;humidity
19200;DHT22;9732;52.498;5.408;2023-05-10T00:00:40;14.00;99.90
19200;DHT22;9732;52.498;5.408;2023-05-10T00:03:06;14.00;99.90
19200;DHT22;9732;52.498;5.408;2023-05-10T00:05:34;14.00;99.90
19200;DHT22;9732;52.498;5.408;2023-05-10T00:08:00;14.00;99.90
19200;DHT22;9732;52.498;5.408;2023-05-10T00:10:27;13.90;99.90
19200;DHT22;9732;52.498;5.408;2023-05-10T00:12:55;13.90;99.90
19200;DHT22;9732;52.498;5.408;2023-05-10T00:15:22;13.90;99.90
19200;DHT22;9732;52.498;5.408;2023-05-10T00:17:49;13.90;99.90
19200;DHT22;9732;52.498;5.408;2023-05-10T00:20:16;13.90;99.90
19200;DHT22;9732;52.498;5.408;2023-05-10T00:22:42;14.00;99.90
19200;DHT22;9732;52.498;5.408;2023-05-10T00:25:09;13.90;99.90
19200;DHT22;9732;52.498;5.408;2023-05-10T00:27:36;13.90;99.90
19200;DHT22;9732;52.498;5.408;2023-05-10T00:30:05;13.90;99.90
19200;DHT22;9732;52.498;5.408;2023-05-10T00:32:32;13.90;99.90
19200;DHT22;9732;52.498;5.408;2023-05-10T00:34:59;13.90;99.90
19200;DHT22;9732;52.498;5.408;2023-05-10T00:37:26;13.90;99.90
19200;DHT22;9732;52.498;5.408;2023-05-10T00:39:53;13.90;99.90
19200;DHT22;9732;52.498;5.408;2023-05-10T00:42:19;13.90;99.90
19200;DHT22;9732;52.498;5.408;2023-05-10T00:44:46;13.90;99.90
19200;DHT22;9732;52.498;5.408;2023-05-10T00:47:15;13.80;99.90
19200;DHT22;9732;52.498;5.408;2023-05-10T00:49:42;13.90;99.90
19200;DHT22;9732;52.498;5.408;2023-05-10T00:52:10;13.90;99.90
19200;DHT22;9732;52.498;5.408;2023-05-10T00:54:36;13.90;99.90
19200;DHT22;9732;52.498;5.408;2023-05-10T00:57:03;13.80;99.90
19200;DHT22;9732;52.498;5.408;2023-05-10T00:59:30;13.80;99.90
19200;DHT22;9732;52.498;5.408;2023-05-10T01:01:58;13.80;99.90
19200;DHT22;9732;52.498;5.408;2023-05-10T01:04:26;13.90;99.90
19200;DHT22;9732;52.498;5.408;2023-05-10T01:06:53;13.90;99.90
19200;DHT22;9732;52.498;5.408;2023-05-10T01:09:21;13.90;99.90
19200;DHT22;9732;52.498;5.408;2023-05-10T01:11:48;13.90;99.90
19200;DHT22;9732;52.498;5.408;2023-05-10T01:14:18;13.90;99.90
19200;DHT22;9732;52.498;5.408;2023-05-10T01:16:46;13.80;99.90
19200;DHT22;9732;52.498;5.408;2023-05-10T01:19:19;13.80;99.90
19200;DHT22;9732;52.498;5.408;2023-05-10T01:21:55;13.80;99.90
19200;DHT22;9732;52.498;5.408;2023-05-10T01:24:50;13.80;99.90
19200;DHT22;9732;52.498;5.408;2023-05-10T01:27:36;13.80;99.90
19200;DHT22;9732;52.498;5.408;2023-05-10T01:30:34;13.80;99.90
19200;DHT22;9732;52.498;5.408;2023-05-10T01:33:10;13.80;99.90
19200;DHT22;9732;52.498;5.408;2023-05-10T01:35:41;13.90;99.90
19200;DHT22;9732;52.498;5.408;2023-05-10T01:38:14;13.90;99.90
19200;DHT22;9732;52.498;5.408;2023-05-10T01:40:51;13.90;99.90
19200;DHT22;9732;52.498;5.408;2023-05-10T01:43:22;13.90;99.90
19200;DHT22;9732;52.498;5.408;2023-05-10T01:45:59;13.90;99.90
19200;DHT22;9732;52.498;5.408;2023-05-10T01:48:32;13.80;99.90
19200;DHT22;9732;52.498;5.408;2023-05-10T01:50:59;13.80;99.90
19200;DHT22;9732;52.498;5.408;2023-05-10T01:53:26;13.80;99.90
19200;DHT22;9732;52.498;5.408;2023-05-10T01:55:55;13.80;99.90
19200;DHT22;9732;52.498;5.408;2023-05-10T01:58:28;13.80;99.90
19200;DHT22;9732;52.498;5.408;2023-05-10T02:00:57;13.80;99.90
19200;DHT22;9732;52.498;5.408;2023-05-10T02:03:26;13.80;99.90
19200;DHT22;9732;52.498;5.408;2023-05-10T02:05:55;13.80;99.90
19200;DHT22;9732;52.498;5.408;2023-05-10T02:08:23;13.80;99.90
19200;DHT22;9732;52.498;5.408;2023-05-10T02:10:52;13.80;99.90
19200;DHT22;9732;52.498;5.408;2023-05-10T02:13:19;13.80;99.90
19200;DHT22;9732;52.498;5.408;2023-05-10T02:15:48;13.80;99.90
19200;DHT22;9732;52.498;5.408;2023-05-10T02:18:16;13.80;99.90
19200;DHT22;9732;52.498;5.408;2023-05-10T02:20:43;13.80;99.90
19200;DHT22;9732;52.498;5.408;2023-05-10T02:23:13;13.90;99.90
19200;DHT22;9732;52.498;5.408;2023-05-10T02:25:41;13.80;99.90
19200;DHT22;9732;52.498;5.408;2023-05-10T02:28:11;13.80;99.90
19200;DHT22;9732;52.498;5.408;2023-05-10T02:30:39;13.80;99.90
19200;DHT22;9732;52.498;5.408;2023-05-10T02:33:06;13.80;99.90
19200;DHT22;9732;52.498;5.408;2023-05-10T02:35:34;13.80;99.90
19200;DHT22;9732;52.498;5.408;2023-05-10T02:38:01;13.80;99.90
19200;DHT22;9732;52.498;5.408;2023-05-10T02:40:30;13.80;99.90
19200;DHT22;9732;52.498;5.408;2023-05-10T02:42:59;13.90;99.90
19200;DHT22;9732;52.498;5.408;2023-05-10T02:45:31;13.90;99.90
19200;DHT22;9732;52.498;5.408;2023-05-10T02:47:58;13.90;99.90
19200;DHT22;9732;52.498;5.408;2023-05-10T02:50:27;13.80;99.90
19200;DHT22;9732;52.498;5.408;2023-05-10T02:52:59;13.90;99.90
19200;DHT22;9732;52.498;5.408;2023-05-10T02:55:32;13.90;99.90
19200;DHT22;9732;52.498;5.408;2023-05-10T02:58:01;13.90;99.90
19200;DHT22;9732;52.498;5.408;2023-05-10T03:00:28;13.90;99.90
19200;DHT22;9732;52.498;5.408;2023-05-10T03:02:55;13.90;99.90
19200;DHT22;9732;52.498;5.408;2023-05-10T03:05:22;13.90;99.90
19200;DHT22;9732;52.498;5.408;2023-05-10T03:07:50;13.80;99.90
19200;DHT22;9732;52.498;5.408;2023-05-10T03:10:18;13.80;99.90
19200;DHT22;9732;52.498;5.408;2023-05-10T03:13:01;13.70;99.90
19200;DHT22;9732;52.498;5.408;2023-05-10T03:15:37;13.60;99.90
19200;DHT22;9732;52.498;5.408;2023-05-10T03:18:12;13.70;99.90
19200;DHT22;9732;52.498;5.408;2023-05-10T03:20:42;13.60;99.90
19200;DHT22;9732;52.498;5.408;2023-05-10T03:23:13;13.60;99.90
19200;DHT22;9732;52.498;5.408;2023-05-10T03:25:47;13.50;99.90
19200;DHT22;9732;52.498;5.408;2023-05-10T03:28:16;13.50;99.90
19200;DHT22;9732;52.498;5.408;2023-05-10T03:30:44;13.60;99.90
19200;DHT22;9732;52.498;5.408;2023-05-10T03:33:12;13.60;99.90
19200;DHT22;9732;52.498;5.408;2023-05-10T03:35:39;13.60;99.90
19200;DHT22;9732;52.498;5.408;2023-05-10T03:38:06;13.60;99.90
19200;DHT22;9732;52.498;5.408;2023-05-10T03:40:33;13.60;99.90
19200;DHT22;9732;52.498;5.408;2023-05-10T03:42:59;13.60;99.90
19200;DHT22;9732;52.498;5.408;2023-05-10T03:45:27;13.50;99.90
19200;DHT22;9732;52.498;5.408;2023-05-10T03:47:54;13.50;99.90
19200;DHT22;9732;52.498;5.408;2023-05-10T03:50:21;13.50;99.90
19200;DHT22;9732;52.498;5.408;2023-05-10T03:52:48;13.50;99.90
19200;DHT22;9732;52.498;5.408;2023-05-10T03:55:15;13.50;99.90
19200;DHT22;9732;52.498;5.408;2023-05-10T03:57:42;13.40;99.90
19200;DHT22;9732;52.498;5.408;2023-05-10T04:00:10;13.40;99.90
19200;DHT22;9732;52.498;5.408;2023-05-10T04:02:38;13.40;99.90
19200;DHT22;9732;52.498;5.408;2023-05-10T04:05:05;13.40;99.90
19200;DHT22;9732;52.498;5.408;2023-05-10T04:07:32;13.40;99.90
19200;DHT22;9732;52.498;5.408;2023-05-10T04:09:59;13.40;99.90
19200;DHT22;9732;52.498;5.408;2023-05-10T04:12:25;13.30;99.90
19200;DHT22;9732;52.498;5.408;2023-05-10T04:14:52;13.30;99.90
19200;DHT22;9732;52.498;5.408;2023-05-10T04:17:19;13.40;99.90
19200;DHT22;9732;52.498;5.408;2023-05-10T04:19:47;13.30;99.90
19200;DHT22;9732;52.498;5.408;2023-05-10T04:22:14;13.30;99.90
19200;DHT22;9732;52.498;5.408;2023-05-10T04:24:41;13.30;99.90
19200;DHT22;9732;52.498;5.408;2023-05-10T04:27:08;13.20;99.90
19200;DHT22;9732;52.498;5.408;2023-05-10T04:29:35;13.20;99.90
19200;DHT22;9732;52.498;5.408;2023-05-10T04:32:02;13.20;99.90
19200;DHT22;9732;52.498;5.408;2023-05-10T04:34:29;13.20;99.90
19200;DHT22;9732;52.498;5.408;2023-05-10T04:36:57;13.30;99.90
19200;DHT22;9732;52.498;5.408;2023-05-10T04:39:24;13.30;99.90
19200;DHT22;9732;52.498;5.408;2023-05-10T04:41:51;13.30;99.90
19200;DHT22;9732;52.498;5.408;2023-05-10T04:44:17;13.30;99.90
19200;DHT22;9732;52.498;5.408;2023-05-10T04:46:44;13.30;99.90
19200;DHT22;9732;52.498;5.408;2023-05-10T04:49:11;13.40;99.90
19200;DHT22;9732;52.498;5.408;2023-05-10T04:51:38;13.30;99.90
19200;DHT22;9732;52.498;5.408;2023-05-10T04:54:06;13.30;99.90
19200;DHT22;9732;52.498;5.408;2023-05-10T04:56:35;13.20;99.90
19200;DHT22;9732;52.498;5.408;2023-05-10T04:59:02;13.20;99.90
19200;DHT22;9732;52.498;5.408;2023-05-10T05:01:30;13.30;99.90
19200;DHT22;9732;52.498;5.408;2023-05-10T05:03:57;13.30;99.90
19200;DHT22;9732;52.498;5.408;2023-05-10T05:06:24;13.20;99.90
19200;DHT22;9732;52.498;5.408;2023-05-10T05:08:52;13.20;99.90
19200;DHT22;9732;52.498;5.408;2023-05-10T05:11:20;13.10;99.90
19200;DHT22;9732;52.498;5.408;2023-05-10T05:13:48;13.20;99.90
19200;DHT22;9732;52.498;5.408;2023-05-10T05:16:14;13.20;99.90
19200;DHT22;9732;52.498;5.408;2023-05-10T05:18:42;13.20;99.90
19200;DHT22;9732;52.498;5.408;2023-05-10T05:21:15;13.20;99.90
19200;DHT22;9732;52.498;5.408;2023-05-10T05:23:42;13.20;99.90
19200;DHT22;9732;52.498;5.408;2023-05-10T05:26:09;13.20;99.90
19200;DHT22;9732;52.498;5.408;2023-05-10T05:28:37;13.30;99.90
19200;DHT22;9732;52.498;5.408;2023-05-10T05:31:04;13.30;99.90
19200;DHT22;9732;52.498;5.408;2023-05-10T05:33:31;13.20;99.90
19200;DHT22;9732;52.498;5.408;2023-05-10T05:36:01;13.30;99.90
19200;DHT22;9732;52.498;5.408;2023-05-10T05:38:28;13.30;99.90
19200;DHT22;9732;52.498;5.408;2023-05-10T05:40:55;13.30;99.90
19200;DHT22;9732;52.498;5.408;2023-05-10T05:43:22;13.30;99.90
19200;DHT22;9732;52.498;5.408;2023-05-10T05:45:52;13.30;99.90
19200;DHT22;9732;52.498;5.408;2023-05-10T05:48:19;13.40;99.90
19200;DHT22;9732;52.498;5.408;2023-05-10T05:50:46;13.40;99.90
19200;DHT22;9732;52.498;5.408;2023-05-10T05:53:12;13.40;99.90
19200;DHT22;9732;52.498;5.408;2023-05-10T05:55:39;13.40;99.90
19200;DHT22;9732;52.498;5.408;2023-05-10T05:58:07;13.40;99.90
19200;DHT22;9732;52.498;5.408;2023-05-10T06:00:34;13.30;99.90
19200;DHT22;9732;52.498;5.408;2023-05-10T06:03:02;13.30;99.90
19200;DHT22;9732;52.498;5.408;2023-05-10T06:05:29;13.30;99.90
19200;DHT22;9732;52.498;5.408;2023-05-10T06:07:55;13.30;99.90
19200;DHT22;9732;52.498;5.408;2023-05-10T06:10:22;13.30;99.90
19200;DHT22;9732;52.498;5.408;2023-05-10T06:12:50;13.30;99.90
19200;DHT22;9732;52.498;5.408;2023-05-10T06:15:17;13.30;99.90
19200;DHT22;9732;52.498;5.408;2023-05-10T06:17:44;13.30;99.90
19200;DHT22;9732;52.498;5.408;2023-05-10T06:20:14;13.30;99.90
19200;DHT22;9732;52.498;5.408;2023-05-10T06:22:41;13.30;99.90
19200;DHT22;9732;52.498;5.408;2023-05-10T06:25:08;13.30;99.90
19200;DHT22;9732;52.498;5.408;2023-05-10T06:27:35;13.30;99.90
19200;DHT22;9732;52.498;5.408;2023-05-10T06:30:02;13.30;99.90
19200;DHT22;9732;52.498;5.408;2023-05-10T06:32:30;13.30;99.90
19200;DHT22;9732;52.498;5.408;2023-05-10T06:34:57;13.40;99.90
19200;DHT22;9732;52.498;5.408;2023-05-10T06:37:25;13.40;99.90
19200;DHT22;9732;52.498;5.408;2023-05-10T06:39:51;13.40;99.90
19200;DHT22;9732;52.498;5.408;2023-05-10T06:42:18;13.40;99.90
19200;DHT22;9732;52.498;5.408;2023-05-10T06:44:45;13.40;99.90
19200;DHT22;9732;52.498;5.408;2023-05-10T06:47:12;13.40;99.90
19200;DHT22;9732;52.498;5.408;2023-05-10T06:49:38;13.50;99.90
19200;DHT22;9732;52.498;5.408;2023-05-10T06:52:05;13.50;99.90
19200;DHT22;9732;52.498;5.408;2023-05-10T06:54:33;13.50;99.90
19200;DHT22;9732;52.498;5.408;2023-05-10T06:57:00;13.50;99.90
19200;DHT22;9732;52.498;5.408;2023-05-10T06:59:28;13.50;99.90
19200;DHT22;9732;52.498;5.408;2023-05-10T07:01:55;13.50;99.90
19200;DHT22;9732;52.498;5.408;2023-05-10T07:04:21;13.50;99.90
19200;DHT22;9732;52.498;5.408;2023-05-10T07:06:48;13.50;99.90
19200;DHT22;9732;52.498;5.408;2023-05-10T07:09:16;13.60;99.90
19200;DHT22;9732;52.498;5.408;2023-05-10T07:11:44;13.50;99.90
19200;DHT22;9732;52.498;5.408;2023-05-10T07:14:10;13.50;99.90
19200;DHT22;9732;52.498;5.408;2023-05-10T07:16:37;13.50;99.90
19200;DHT22;9732;52.498;5.408;2023-05-10T07:19:04;13.50;99.90
19200;DHT22;9732;52.498;5.408;2023-05-10T07:21:31;13.60;99.90
19200;DHT22;9732;52.498;5.408;2023-05-10T07:23:58;13.60;99.90
19200;DHT22;9732;52.498;5.408;2023-05-10T07:26:25;13.60;99.90
19200;DHT22;9732;52.498;5.408;2023-05-10T07:28:53;13.70;99.90
19200;DHT22;9732;52.498;5.408;2023-05-10T07:31:20;13.70;99.90
19200;DHT22;9732;52.498;5.408;2023-05-10T07:33:47;13.80;99.90
19200;DHT22;9732;52.498;5.408;2023-05-10T07:36:13;13.80;99.90
19200;DHT22;9732;52.498;5.408;2023-05-10T07:38:40;13.90;99.90
19200;DHT22;9732;52.498;5.408;2023-05-10T07:41:07;13.90;99.90
19200;DHT22;9732;52.498;5.408;2023-05-10T07:43:33;14.00;99.90
19200;DHT22;9732;52.498;5.408;2023-05-10T07:46:02;14.00;99.90
19200;DHT22;9732;52.498;5.408;2023-05-10T07:48:28;14.10;99.90
19200;DHT22;9732;52.498;5.408;2023-05-10T07:50:55;14.20;99.90
19200;DHT22;9732;52.498;5.408;2023-05-10T07:53:22;14.20;99.90
19200;DHT22;9732;52.498;5.408;2023-05-10T07:55:50;14.30;99.90
19200;DHT22;9732;52.498;5.408;2023-05-10T07:58:17;14.40;99.90
19200;DHT22;9732;52.498;5.408;2023-05-10T08:00:44;14.40;99.90
19200;DHT22;9732;52.498;5.408;2023-05-10T08:03:12;14.50;99.90
19200;DHT22;9732;52.498;5.408;2023-05-10T08:05:39;14.50;99.90
19200;DHT22;9732;52.498;5.408;2023-05-10T08:08:06;14.50;99.90
19200;DHT22;9732;52.498;5.408;2023-05-10T08:10:33;14.50;99.90
19200;DHT22;9732;52.498;5.408;2023-05-10T08:12:59;14.60;99.90
19200;DHT22;9732;52.498;5.408;2023-05-10T08:15:27;14.60;99.90
19200;DHT22;9732;52.498;5.408;2023-05-10T08:17:54;14.60;99.90
19200;DHT22;9732;52.498;5.408;2023-05-10T08:20:22;14.70;99.90
19200;DHT22;9732;52.498;5.408;2023-05-10T08:22:49;14.70;99.90
19200;DHT22;9732;52.498;5.408;2023-05-10T08:25:15;14.70;99.90
19200;DHT22;9732;52.498;5.408;2023-05-10T08:27:42;14.70;99.90
19200;DHT22;9732;52.498;5.408;2023-05-10T08:30:09;14.80;99.90
19200;DHT22;9732;52.498;5.408;2023-05-10T08:32:37;14.80;99.90
19200;DHT22;9732;52.498;5.408;2023-05-10T08:35:05;14.90;99.90
19200;DHT22;9732;52.498;5.408;2023-05-10T08:37:33;15.00;99.90
19200;DHT22;9732;52.498;5.408;2023-05-10T08:39:59;15.10;99.90
19200;DHT22;9732;52.498;5.408;2023-05-10T08:42:30;15.00;99.90
19200;DHT22;9732;52.498;5.408;2023-05-10T08:45:00;15.00;99.90
19200;DHT22;9732;52.498;5.408;2023-05-10T08:47:28;15.00;99.90
19200;DHT22;9732;52.498;5.408;2023-05-10T08:49:56;15.00;99.90
19200;DHT22;9732;52.498;5.408;2023-05-10T08:52:26;15.20;99.90
19200;DHT22;9732;52.498;5.408;2023-05-10T08:54:56;15.30;99.90
19200;DHT22;9732;52.498;5.408;2023-05-10T08:57:22;15.40;99.90
19200;DHT22;9732;52.498;5.408;2023-05-10T08:59:49;15.40;99.90
19200;DHT22;9732;52.498;5.408;2023-05-10T09:02:17;15.50;99.90
19200;DHT22;9732;52.498;5.408;2023-05-10T09:04:44;15.60;99.90
19200;DHT22;9732;52.498;5.408;2023-05-10T09:07:11;15.60;99.90
19200;DHT22;9732;52.498;5.408;2023-05-10T09:09:38;15.60;99.90
19200;DHT22;9732;52.498;5.408;2023-05-10T09:12:07;15.80;99.90
19200;DHT22;9732;52.498;5.408;2023-05-10T09:14:36;15.90;99.90
19200;DHT22;9732;52.498;5.408;2023-05-10T09:17:04;15.90;99.90
19200;DHT22;9732;52.498;5.408;2023-05-10T09:19:31;15.90;99.90
19200;DHT22;9732;52.498;5.408;2023-05-10T09:21:58;15.90;99.90
19200;DHT22;9732;52.498;5.408;2023-05-10T09:24:25;16.10;99.90
19200;DHT22;9732;52.498;5.408;2023-05-10T09:26:53;16.20;99.90
19200;DHT22;9732;52.498;5.408;2023-05-10T09:29:21;16.30;99.90
19200;DHT22;9732;52.498;5.408;2023-05-10T09:31:49;16.30;99.90
19200;DHT22;9732;52.498;5.408;2023-05-10T09:34:21;16.50;99.90
19200;DHT22;9732;52.498;5.408;2023-05-10T09:36:56;16.60;99.90
19200;DHT22;9732;52.498;5.408;2023-05-10T09:39:33;16.60;99.90
19200;DHT22;9732;52.498;5.408;2023-05-10T09:42:02;16.60;99.90
19200;DHT22;9732;52.498;5.408;2023-05-10T09:44:31;16.80;99.90
19200;DHT22;9732;52.498;5.408;2023-05-10T09:46:58;16.90;99.90
19200;DHT22;9732;52.498;5.408;2023-05-10T09:49:25;17.00;99.90
19200;DHT22;9732;52.498;5.408;2023-05-10T09:52:00;16.90;99.90
19200;DHT22;9732;52.498;5.408;2023-05-10T09:54:28;16.90;99.90
19200;DHT22;9732;52.498;5.408;2023-05-10T09:56:55;16.80;99.90
19200;DHT22;9732;52.498;5.408;2023-05-10T09:59:24;16.80;99.90
19200;DHT22;9732;52.498;5.408;2023-05-10T10:01:53;16.80;99.90
19200;DHT22;9732;52.498;5.408;2023-05-10T10:04:22;16.90;99.90
19200;DHT22;9732;52.498;5.408;2023-05-10T10:06:58;16.90;99.90
19200;DHT22;9732;52.498;5.408;2023-05-10T10:09:25;17.10;99.90
19200;DHT22;9732;52.498;5.408;2023-05-10T10:11:54;17.20;99.90
19200;DHT22;9732;52.498;5.408;2023-05-10T10:14:21;17.30;99.90
19200;DHT22;9732;52.498;5.408;2023-05-10T10:16:49;17.40;99.90
19200;DHT22;9732;52.498;5.408;2023-05-10T10:19:17;17.40;99.90
19200;DHT22;9732;52.498;5.408;2023-05-10T10:21:44;17.40;99.90
19200;DHT22;9732;52.498;5.408;2023-05-10T10:24:11;17.40;99.90
19200;DHT22;9732;52.498;5.408;2023-05-10T10:26:38;17.50;99.90
19200;DHT22;9732;52.498;5.408;2023-05-10T10:29:16;17.70;99.90
19200;DHT22;9732;52.498;5.408;2023-05-10T10:31:48;17.70;99.90
19200;DHT22;9732;52.498;5.408;2023-05-10T10:34:26;17.80;99.90
19200;DHT22;9732;52.498;5.408;2023-05-10T10:36:54;18.00;99.90
19200;DHT22;9732;52.498;5.408;2023-05-10T10:39:21;17.90;99.90
19200;DHT22;9732;52.498;5.408;2023-05-10T10:41:51;17.80;99.90
19200;DHT22;9732;52.498;5.408;2023-05-10T10:44:28;17.70;99.90
19200;DHT22;9732;52.498;5.408;2023-05-10T10:47:05;17.80;99.90
19200;DHT22;9732;52.498;5.408;2023-05-10T10:49:38;18.10;99.90
19200;DHT22;9732;52.498;5.408;2023-05-10T10:52:18;18.30;99.90
19200;DHT22;9732;52.498;5.408;2023-05-10T10:54:50;18.30;99.90
19200;DHT22;9732;52.498;5.408;2023-05-10T10:57:19;18.10;99.90
19200;DHT22;9732;52.498;5.408;2023-05-10T10:59:47;17.90;99.90
19200;DHT22;9732;52.498;5.408;2023-05-10T11:02:33;17.60;99.90
19200;DHT22;9732;52.498;5.408;2023-05-10T11:05:25;17.30;99.90
19200;DHT22;9732;52.498;5.408;2023-05-10T11:07:52;17.20;99.90
19200;DHT22;9732;52.498;5.408;2023-05-10T11:10:20;17.20;99.90
19200;DHT22;9732;52.498;5.408;2023-05-10T11:12:54;17.10;99.90
19200;DHT22;9732;52.498;5.408;2023-05-10T11:15:28;17.00;99.90
19200;DHT22;9732;52.498;5.408;2023-05-10T11:17:56;16.80;99.90
19200;DHT22;9732;52.498;5.408;2023-05-10T11:20:27;16.70;99.90
19200;DHT22;9732;52.498;5.408;2023-05-10T11:23:11;16.60;99.90
19200;DHT22;9732;52.498;5.408;2023-05-10T11:25:41;16.50;99.90
19200;DHT22;9732;52.498;5.408;2023-05-10T11:28:09;16.50;99.90
19200;DHT22;9732;52.498;5.408;2023-05-10T11:30:36;16.40;99.90
19200;DHT22;9732;52.498;5.408;2023-05-10T11:33:03;16.30;99.90
19200;DHT22;9732;52.498;5.408;2023-05-10T11:35:31;16.20;99.90
19200;DHT22;9732;52.498;5.408;2023-05-10T11:38:05;16.10;99.90
19200;DHT22;9732;52.498;5.408;2023-05-10T11:40:32;16.00;99.90
19200;DHT22;9732;52.498;5.408;2023-05-10T11:42:59;16.00;99.90
19200;DHT22;9732;52.498;5.408;2023-05-10T11:45:26;16.00;99.90
19200;DHT22;9732;52.498;5.408;2023-05-10T11:47:53;16.10;99.90
19200;DHT22;9732;52.498;5.408;2023-05-10T11:50:20;16.20;99.90
19200;DHT22;9732;52.498;5.408;2023-05-10T11:52:51;16.20;99.90
19200;DHT22;9732;52.498;5.408;2023-05-10T11:55:18;16.20;99.90
19200;DHT22;9732;52.498;5.408;2023-05-10T11:57:46;16.20;99.90
19200;DHT22;9732;52.498;5.408;2023-05-10T12:00:13;16.20;99.90
19200;DHT22;9732;52.498;5.408;2023-05-10T12:02:40;16.10;99.90
19200;DHT22;9732;52.498;5.408;2023-05-10T12:05:08;16.10;99.90
19200;DHT22;9732;52.498;5.408;2023-05-10T12:07:35;16.20;99.90
19200;DHT22;9732;52.498;5.408;2023-05-10T12:10:07;16.10;99.90
19200;DHT22;9732;52.498;5.408;2023-05-10T12:12:38;16.20;99.90
19200;DHT22;9732;52.498;5.408;2023-05-10T12:15:11;16.40;99.90
19200;DHT22;9732;52.498;5.408;2023-05-10T12:17:38;16.50;99.90
19200;DHT22;9732;52.498;5.408;2023-05-10T12:20:16;16.90;99.90
19200;DHT22;9732;52.498;5.408;2023-05-10T12:22:47;17.30;99.90
19200;DHT22;9732;52.498;5.408;2023-05-10T12:25:17;17.60;99.90
19200;DHT22;9732;52.498;5.408;2023-05-10T12:27:51;17.60;99.90
19200;DHT22;9732;52.498;5.408;2023-05-10T12:30:22;17.60;99.90
19200;DHT22;9732;52.498;5.408;2023-05-10T12:32:50;17.50;99.90
19200;DHT22;9732;52.498;5.408;2023-05-10T12:35:17;17.50;99.90
19200;DHT22;9732;52.498;5.408;2023-05-10T12:37:47;17.60;99.90
19200;DHT22;9732;52.498;5.408;2023-05-10T12:40:15;17.90;99.90
19200;DHT22;9732;52.498;5.408;2023-05-10T12:42:42;18.10;99.90
19200;DHT22;9732;52.498;5.408;2023-05-10T12:45:10;18.30;99.90
19200;DHT22;9732;52.498;5.408;2023-05-10T12:47:37;18.40;99.90
19200;DHT22;9732;52.498;5.408;2023-05-10T12:50:05;18.40;99.90
19200;DHT22;9732;52.498;5.408;2023-05-10T12:52:32;18.50;99.90
19200;DHT22;9732;52.498;5.408;2023-05-10T12:54:59;18.70;99.90
19200;DHT22;9732;52.498;5.408;2023-05-10T12:57:27;19.00;99.90
19200;DHT22;9732;52.498;5.408;2023-05-10T12:59:54;19.40;99.90
19200;DHT22;9732;52.498;5.408;2023-05-10T13:02:21;19.90;99.90
19200;DHT22;9732;52.498;5.408;2023-05-10T13:04:49;20.10;99.90
19200;DHT22;9732;52.498;5.408;2023-05-10T13:07:15;20.60;99.90
19200;DHT22;9732;52.498;5.408;2023-05-10T13:09:42;21.20;99.90
19200;DHT22;9732;52.498;5.408;2023-05-10T13:12:09;21.40;99.90
19200;DHT22;9732;52.498;5.408;2023-05-10T13:14:37;21.40;99.90
19200;DHT22;9732;52.498;5.408;2023-05-10T13:17:06;21.50;99.90
19200;DHT22;9732;52.498;5.408;2023-05-10T13:19:32;21.60;99.90
19200;DHT22;9732;52.498;5.408;2023-05-10T13:21:59;21.30;99.90
19200;DHT22;9732;52.498;5.408;2023-05-10T13:24:26;20.80;99.90
19200;DHT22;9732;52.498;5.408;2023-05-10T13:26:53;20.40;99.90
19200;DHT22;9732;52.498;5.408;2023-05-10T13:29:19;20.00;99.90
19200;DHT22;9732;52.498;5.408;2023-05-10T13:31:49;19.50;99.90
19200;DHT22;9732;52.498;5.408;2023-05-10T13:34:16;19.20;99.90
19200;DHT22;9732;52.498;5.408;2023-05-10T13:36:45;18.90;99.90
19200;DHT22;9732;52.498;5.408;2023-05-10T13:39:12;18.80;99.90
19200;DHT22;9732;52.498;5.408;2023-05-10T13:41:39;18.80;99.90
19200;DHT22;9732;52.498;5.408;2023-05-10T13:44:05;18.80;99.90
19200;DHT22;9732;52.498;5.408;2023-05-10T13:46:32;19.10;99.90
19200;DHT22;9732;52.498;5.408;2023-05-10T13:49:00;19.40;99.90
19200;DHT22;9732;52.498;5.408;2023-05-10T13:51:27;19.50;99.90
19200;DHT22;9732;52.498;5.408;2023-05-10T13:53:54;19.50;99.90
19200;DHT22;9732;52.498;5.408;2023-05-10T13:56:20;19.40;99.90
19200;DHT22;9732;52.498;5.408;2023-05-10T13:58:47;19.30;99.90
19200;DHT22;9732;52.498;5.408;2023-05-10T14:01:14;19.20;99.90
19200;DHT22;9732;52.498;5.408;2023-05-10T14:03:40;19.10;99.90
19200;DHT22;9732;52.498;5.408;2023-05-10T14:06:09;19.00;99.90
19200;DHT22;9732;52.498;5.408;2023-05-10T14:08:36;18.90;99.90
19200;DHT22;9732;52.498;5.408;2023-05-10T14:11:03;18.80;99.90
19200;DHT22;9732;52.498;5.408;2023-05-10T14:13:29;18.70;99.90
19200;DHT22;9732;52.498;5.408;2023-05-10T14:15:56;18.60;99.90
19200;DHT22;9732;52.498;5.408;2023-05-10T14:18:25;18.40;99.90
19200;DHT22;9732;52.498;5.408;2023-05-10T14:20:52;18.40;99.90
19200;DHT22;9732;52.498;5.408;2023-05-10T14:23:21;18.30;99.90
19200;DHT22;9732;52.498;5.408;2023-05-10T14:25:49;18.20;99.90
19200;DHT22;9732;52.498;5.408;2023-05-10T14:28:16;18.20;99.90
19200;DHT22;9732;52.498;5.408;2023-05-10T14:30:43;18.10;99.90
19200;DHT22;9732;52.498;5.408;2023-05-10T14:33:10;18.10;99.90
19200;DHT22;9732;52.498;5.408;2023-05-10T14:35:37;18.10;99.90
19200;DHT22;9732;52.498;5.408;2023-05-10T14:38:04;18.10;99.90
19200;DHT22;9732;52.498;5.408;2023-05-10T14:40:32;18.10;99.90
19200;DHT22;9732;52.498;5.408;2023-05-10T14:42:59;18.10;99.90
19200;DHT22;9732;52.498;5.408;2023-05-10T14:45:26;18.00;99.90
19200;DHT22;9732;52.498;5.408;2023-05-10T14:47:53;17.90;99.90
19200;DHT22;9732;52.498;5.408;2023-05-10T14:50:20;17.80;99.90
19200;DHT22;9732;52.498;5.408;2023-05-10T14:52:46;17.80;99.90
19200;DHT22;9732;52.498;5.408;2023-05-10T14:55:14;17.70;99.90
19200;DHT22;9732;52.498;5.408;2023-05-10T14:57:43;17.80;99.90
19200;DHT22;9732;52.498;5.408;2023-05-10T15:00:13;17.90;99.90
19200;DHT22;9732;52.498;5.408;2023-05-10T15:02:41;17.90;99.90
19200;DHT22;9732;52.498;5.408;2023-05-10T15:05:08;18.00;99.90
19200;DHT22;9732;52.498;5.408;2023-05-10T15:07:35;17.90;99.90
19200;DHT22;9732;52.498;5.408;2023-05-10T15:10:02;17.80;99.90
19200;DHT22;9732;52.498;5.408;2023-05-10T15:12:29;17.60;99.90
19200;DHT22;9732;52.498;5.408;2023-05-10T15:14:57;17.50;99.90
19200;DHT22;9732;52.498;5.408;2023-05-10T15:17:24;17.30;99.90
19200;DHT22;9732;52.498;5.408;2023-05-10T15:19:50;17.20;99.90
19200;DHT22;9732;52.498;5.408;2023-05-10T15:22:17;17.20;99.90
19200;DHT22;9732;52.498;5.408;2023-05-10T15:24:44;17.10;99.90
19200;DHT22;9732;52.498;5.408;2023-05-10T15:27:11;17.00;99.90
19200;DHT22;9732;52.498;5.408;2023-05-10T15:29:37;16.90;99.90
19200;DHT22;9732;52.498;5.408;2023-05-10T15:32:05;16.90;99.90
19200;DHT22;9732;52.498;5.408;2023-05-10T15:34:32;16.80;99.90
19200;DHT22;9732;52.498;5.408;2023-05-10T15:36:59;16.80;99.90
19200;DHT22;9732;52.498;5.408;2023-05-10T15:39:26;16.80;99.90
19200;DHT22;9732;52.498;5.408;2023-05-10T15:41:52;16.80;99.90
19200;DHT22;9732;52.498;5.408;2023-05-10T15:44:19;16.80;99.90
19200;DHT22;9732;52.498;5.408;2023-05-10T15:46:46;16.80;99.90
19200;DHT22;9732;52.498;5.408;2023-05-10T15:49:14;16.70;99.90
19200;DHT22;9732;52.498;5.408;2023-05-10T15:51:41;16.60;99.90